sensor_id;sensor_type;location;lat;lon;timestamp;P1;durP1;ratioP1;P2;durP2;ratioP2
77430;SDS011;66498;48.564;19.272;2023-03-24T00:01:12;40.97;;;29.23;;
77430;SDS011;66498;48.564;19.272;2023-03-24T00:03:37;35.38;;;23.65;;
77430;SDS011;66498;48.564;19.272;2023-03-24T00:06:03;34.20;;;22.67;;
77430;SDS011;66498;48.564;19.272;2023-03-24T00:08:31;35.10;;;23.50;;
77430;SDS011;66498;48.564;19.272;2023-03-24T00:11:03;36.92;;;23.60;;
77430;SDS011;66498;48.564;19.272;2023-03-24T00:13:33;34.28;;;23.60;;
77430;SDS011;66498;48.564;19.272;2023-03-24T00:16:12;32.50;;;22.02;;
77430;SDS011;66498;48.564;19.272;2023-03-24T00:18:41;30.60;;;22.08;;
77430;SDS011;66498;48.564;19.272;2023-03-24T00:21:07;32.80;;;22.08;;
77430;SDS011;66498;48.564;19.272;2023-03-24T00:23:33;36.60;;;22.50;;
77430;SDS011;66498;48.564;19.272;2023-03-24T00:26:00;33.38;;;23.38;;
77430;SDS011;66498;48.564;19.272;2023-03-24T00:28:31;32.08;;;21.95;;
77430;SDS011;66498;48.564;19.272;2023-03-24T00:31:01;35.97;;;23.40;;
77430;SDS011;66498;48.564;19.272;2023-03-24T00:33:31;39.80;;;24.17;;
77430;SDS011;66498;48.564;19.272;2023-03-24T00:35:59;34.70;;;22.80;;
77430;SDS011;66498;48.564;19.272;2023-03-24T00:38:29;36.90;;;23.77;;
77430;SDS011;66498;48.564;19.272;2023-03-24T00:40:56;35.13;;;22.23;;
77430;SDS011;66498;48.564;19.272;2023-03-24T00:43:23;28.90;;;21.38;;
77430;SDS011;66498;48.564;19.272;2023-03-24T00:45:48;33.15;;;21.73;;
77430;SDS011;66498;48.564;19.272;2023-03-24T00:48:16;33.97;;;22.70;;
77430;SDS011;66498;48.564;19.272;2023-03-24T00:50:44;34.08;;;21.25;;
77430;SDS011;66498;48.564;19.272;2023-03-24T00:53:12;36.45;;;21.25;;
77430;SDS011;66498;48.564;19.272;2023-03-24T00:55:40;31.38;;;21.75;;
77430;SDS011;66498;48.564;19.272;2023-03-24T00:58:15;32.60;;;23.30;;
77430;SDS011;66498;48.564;19.272;2023-03-24T01:00:47;32.92;;;21.88;;
77430;SDS011;66498;48.564;19.272;2023-03-24T01:03:15;33.33;;;21.77;;
77430;SDS011;66498;48.564;19.272;2023-03-24T01:05:43;36.78;;;23.17;;
77430;SDS011;66498;48.564;19.272;2023-03-24T01:08:12;34.47;;;21.83;;
77430;SDS011;66498;48.564;19.272;2023-03-24T01:10:40;31.98;;;22.40;;
77430;SDS011;66498;48.564;19.272;2023-03-24T01:13:15;31.92;;;20.65;;
77430;SDS011;66498;48.564;19.272;2023-03-24T01:15:41;29.25;;;21.20;;
77430;SDS011;66498;48.564;19.272;2023-03-24T01:18:09;31.05;;;22.08;;
77430;SDS011;66498;48.564;19.272;2023-03-24T01:20:37;31.15;;;21.05;;
77430;SDS011;66498;48.564;19.272;2023-03-24T01:23:06;29.10;;;19.80;;
77430;SDS011;66498;48.564;19.272;2023-03-24T01:25:33;27.17;;;19.48;;
77430;SDS011;66498;48.564;19.272;2023-03-24T01:28:01;33.83;;;22.10;;
77430;SDS011;66498;48.564;19.272;2023-03-24T01:30:27;30.88;;;20.63;;
77430;SDS011;66498;48.564;19.272;2023-03-24T01:32:54;28.98;;;20.70;;
77430;SDS011;66498;48.564;19.272;2023-03-24T01:35:20;32.88;;;21.42;;
77430;SDS011;66498;48.564;19.272;2023-03-24T01:37:48;32.20;;;21.92;;
77430;SDS011;66498;48.564;19.272;2023-03-24T01:40:18;35.40;;;24.52;;
77430;SDS011;66498;48.564;19.272;2023-03-24T01:42:45;33.72;;;23.23;;
77430;SDS011;66498;48.564;19.272;2023-03-24T01:48:15;37.65;;;23.13;;
77430;SDS011;66498;48.564;19.272;2023-03-24T01:50:45;34.92;;;22.05;;
77430;SDS011;66498;48.564;19.272;2023-03-24T01:53:16;36.47;;;22.50;;
77430;SDS011;66498;48.564;19.272;2023-03-24T01:55:42;39.20;;;24.17;;
77430;SDS011;66498;48.564;19.272;2023-03-24T01:58:11;38.25;;;25.15;;
77430;SDS011;66498;48.564;19.272;2023-03-24T02:00:37;34.80;;;24.23;;
77430;SDS011;66498;48.564;19.272;2023-03-24T02:03:06;35.70;;;23.75;;
77430;SDS011;66498;48.564;19.272;2023-03-24T02:05:43;39.67;;;23.60;;
77430;SDS011;66498;48.564;19.272;2023-03-24T02:08:13;40.53;;;24.80;;
77430;SDS011;66498;48.564;19.272;2023-03-24T02:10:40;33.33;;;22.65;;
77430;SDS011;66498;48.564;19.272;2023-03-24T02:13:08;35.30;;;22.98;;
77430;SDS011;66498;48.564;19.272;2023-03-24T02:15:35;36.55;;;23.75;;
77430;SDS011;66498;48.564;19.272;2023-03-24T02:18:34;33.58;;;23.52;;
77430;SDS011;66498;48.564;19.272;2023-03-24T02:41:54;30.83;;;20.13;;
77430;SDS011;66498;48.564;19.272;2023-03-24T02:52:19;30.58;;;20.73;;
77430;SDS011;66498;48.564;19.272;2023-03-24T02:54:52;29.83;;;19.85;;
77430;SDS011;66498;48.564;19.272;2023-03-24T02:57:32;28.08;;;20.40;;
77430;SDS011;66498;48.564;19.272;2023-03-24T03:02:44;24.92;;;18.92;;
77430;SDS011;66498;48.564;19.272;2023-03-24T03:05:15;29.70;;;18.15;;
77430;SDS011;66498;48.564;19.272;2023-03-24T03:07:47;28.20;;;19.20;;
77430;SDS011;66498;48.564;19.272;2023-03-24T03:10:18;30.92;;;19.10;;
77430;SDS011;66498;48.564;19.272;2023-03-24T03:12:48;30.27;;;18.08;;
77430;SDS011;66498;48.564;19.272;2023-03-24T03:15:20;27.88;;;18.80;;
77430;SDS011;66498;48.564;19.272;2023-03-24T03:20:26;27.20;;;18.67;;
77430;SDS011;66498;48.564;19.272;2023-03-24T03:22:59;27.30;;;16.92;;
77430;SDS011;66498;48.564;19.272;2023-03-24T03:25:36;30.33;;;18.20;;
77430;SDS011;66498;48.564;19.272;2023-03-24T03:28:10;25.80;;;18.05;;
77430;SDS011;66498;48.564;19.272;2023-03-24T03:30:46;27.10;;;17.58;;
77430;SDS011;66498;48.564;19.272;2023-03-24T03:33:19;30.10;;;18.20;;
77430;SDS011;66498;48.564;19.272;2023-03-24T03:35:52;26.30;;;18.20;;
77430;SDS011;66498;48.564;19.272;2023-03-24T03:38:34;29.50;;;19.45;;
77430;SDS011;66498;48.564;19.272;2023-03-24T03:41:09;27.42;;;18.88;;
77430;SDS011;66498;48.564;19.272;2023-03-24T03:43:35;29.67;;;20.10;;
77430;SDS011;66498;48.564;19.272;2023-03-24T03:46:02;25.20;;;18.35;;
77430;SDS011;66498;48.564;19.272;2023-03-24T03:48:30;26.08;;;19.17;;
77430;SDS011;66498;48.564;19.272;2023-03-24T03:50:57;30.67;;;19.83;;
77430;SDS011;66498;48.564;19.272;2023-03-24T03:53:25;27.60;;;19.33;;
77430;SDS011;66498;48.564;19.272;2023-03-24T03:55:55;27.73;;;19.92;;
77430;SDS011;66498;48.564;19.272;2023-03-24T03:58:21;30.50;;;21.02;;
77430;SDS011;66498;48.564;19.272;2023-03-24T04:00:47;31.60;;;20.48;;
77430;SDS011;66498;48.564;19.272;2023-03-24T04:17:03;28.20;;;19.85;;
77430;SDS011;66498;48.564;19.272;2023-03-24T04:19:55;27.38;;;19.08;;
77430;SDS011;66498;48.564;19.272;2023-03-24T04:27:58;26.45;;;19.30;;
77430;SDS011;66498;48.564;19.272;2023-03-24T04:30:55;32.10;;;21.52;;
77430;SDS011;66498;48.564;19.272;2023-03-24T04:36:16;36.17;;;23.55;;
77430;SDS011;66498;48.564;19.272;2023-03-24T04:38:52;27.85;;;20.23;;
77430;SDS011;66498;48.564;19.272;2023-03-24T04:41:21;27.88;;;20.25;;
77430;SDS011;66498;48.564;19.272;2023-03-24T04:43:50;29.42;;;19.98;;
77430;SDS011;66498;48.564;19.272;2023-03-24T04:46:19;29.85;;;20.83;;
77430;SDS011;66498;48.564;19.272;2023-03-24T04:48:45;29.67;;;19.95;;
77430;SDS011;66498;48.564;19.272;2023-03-24T04:51:15;29.77;;;20.25;;
77430;SDS011;66498;48.564;19.272;2023-03-24T04:53:44;28.30;;;19.63;;
77430;SDS011;66498;48.564;19.272;2023-03-24T04:56:21;28.67;;;19.88;;
77430;SDS011;66498;48.564;19.272;2023-03-24T04:58:50;30.95;;;20.50;;
77430;SDS011;66498;48.564;19.272;2023-03-24T05:01:15;30.35;;;20.48;;
77430;SDS011;66498;48.564;19.272;2023-03-24T05:03:41;36.30;;;23.08;;
77430;SDS011;66498;48.564;19.272;2023-03-24T05:06:10;48.58;;;27.55;;
77430;SDS011;66498;48.564;19.272;2023-03-24T05:08:37;60.33;;;33.03;;
77430;SDS011;66498;48.564;19.272;2023-03-24T05:11:02;58.08;;;30.95;;
77430;SDS011;66498;48.564;19.272;2023-03-24T05:13:28;43.88;;;25.55;;
77430;SDS011;66498;48.564;19.272;2023-03-24T05:15:54;40.75;;;25.05;;
77430;SDS011;66498;48.564;19.272;2023-03-24T05:18:19;39.35;;;24.25;;
77430;SDS011;66498;48.564;19.272;2023-03-24T05:20:44;38.88;;;23.02;;
77430;SDS011;66498;48.564;19.272;2023-03-24T05:23:10;38.38;;;22.45;;
77430;SDS011;66498;48.564;19.272;2023-03-24T05:25:36;36.72;;;23.65;;
77430;SDS011;66498;48.564;19.272;2023-03-24T05:28:01;40.40;;;24.58;;
77430;SDS011;66498;48.564;19.272;2023-03-24T05:30:27;38.15;;;23.45;;
77430;SDS011;66498;48.564;19.272;2023-03-24T05:32:52;40.65;;;24.95;;
77430;SDS011;66498;48.564;19.272;2023-03-24T05:35:18;46.22;;;28.45;;
77430;SDS011;66498;48.564;19.272;2023-03-24T05:37:43;49.35;;;29.80;;
77430;SDS011;66498;48.564;19.272;2023-03-24T05:40:09;60.13;;;29.40;;
77430;SDS011;66498;48.564;19.272;2023-03-24T05:42:35;55.10;;;29.77;;
77430;SDS011;66498;48.564;19.272;2023-03-24T05:45:01;58.80;;;31.83;;
77430;SDS011;66498;48.564;19.272;2023-03-24T05:47:27;56.88;;;31.88;;
77430;SDS011;66498;48.564;19.272;2023-03-24T05:49:52;46.65;;;27.70;;
77430;SDS011;66498;48.564;19.272;2023-03-24T05:52:18;39.92;;;22.45;;
77430;SDS011;66498;48.564;19.272;2023-03-24T05:54:45;27.13;;;20.55;;
77430;SDS011;66498;48.564;19.272;2023-03-24T05:57:12;30.67;;;20.80;;
77430;SDS011;66498;48.564;19.272;2023-03-24T05:59:40;34.53;;;19.75;;
77430;SDS011;66498;48.564;19.272;2023-03-24T06:02:06;30.27;;;18.95;;
77430;SDS011;66498;48.564;19.272;2023-03-24T06:04:31;30.15;;;19.33;;
77430;SDS011;66498;48.564;19.272;2023-03-24T06:06:57;36.58;;;19.63;;
77430;SDS011;66498;48.564;19.272;2023-03-24T06:09:27;25.80;;;17.95;;
77430;SDS011;66498;48.564;19.272;2023-03-24T06:11:57;31.88;;;18.20;;
77430;SDS011;66498;48.564;19.272;2023-03-24T06:14:23;30.50;;;19.50;;
77430;SDS011;66498;48.564;19.272;2023-03-24T06:16:50;26.55;;;18.70;;
77430;SDS011;66498;48.564;19.272;2023-03-24T06:19:16;23.77;;;17.02;;
77430;SDS011;66498;48.564;19.272;2023-03-24T06:21:43;27.92;;;18.33;;
77430;SDS011;66498;48.564;19.272;2023-03-24T06:24:09;28.98;;;17.23;;
77430;SDS011;66498;48.564;19.272;2023-03-24T06:26:38;23.45;;;15.48;;
77430;SDS011;66498;48.564;19.272;2023-03-24T06:29:06;25.60;;;16.90;;
77430;SDS011;66498;48.564;19.272;2023-03-24T06:31:32;27.23;;;16.73;;
77430;SDS011;66498;48.564;19.272;2023-03-24T06:34:01;23.45;;;16.02;;
77430;SDS011;66498;48.564;19.272;2023-03-24T06:36:28;30.08;;;17.77;;
77430;SDS011;66498;48.564;19.272;2023-03-24T06:38:53;29.00;;;17.73;;
77430;SDS011;66498;48.564;19.272;2023-03-24T06:41:20;24.27;;;17.17;;
77430;SDS011;66498;48.564;19.272;2023-03-24T06:43:46;25.75;;;17.45;;
77430;SDS011;66498;48.564;19.272;2023-03-24T06:46:14;27.73;;;16.95;;
77430;SDS011;66498;48.564;19.272;2023-03-24T06:48:40;26.58;;;17.77;;
77430;SDS011;66498;48.564;19.272;2023-03-24T06:51:05;24.38;;;17.63;;
77430;SDS011;66498;48.564;19.272;2023-03-24T06:53:31;24.52;;;17.58;;
77430;SDS011;66498;48.564;19.272;2023-03-24T06:55:57;30.77;;;23.23;;
77430;SDS011;66498;48.564;19.272;2023-03-24T06:58:23;35.92;;;25.63;;
77430;SDS011;66498;48.564;19.272;2023-03-24T07:00:48;27.92;;;20.63;;
77430;SDS011;66498;48.564;19.272;2023-03-24T07:03:14;30.20;;;19.55;;
77430;SDS011;66498;48.564;19.272;2023-03-24T07:05:40;26.05;;;19.65;;
77430;SDS011;66498;48.564;19.272;2023-03-24T07:08:08;28.23;;;19.35;;
77430;SDS011;66498;48.564;19.272;2023-03-24T07:10:36;30.08;;;20.33;;
77430;SDS011;66498;48.564;19.272;2023-03-24T07:13:06;27.88;;;19.50;;
77430;SDS011;66498;48.564;19.272;2023-03-24T07:15:32;28.58;;;20.70;;
77430;SDS011;66498;48.564;19.272;2023-03-24T07:17:58;37.22;;;23.52;;
77430;SDS011;66498;48.564;19.272;2023-03-24T07:20:23;36.58;;;22.75;;
77430;SDS011;66498;48.564;19.272;2023-03-24T07:22:49;25.27;;;17.55;;
77430;SDS011;66498;48.564;19.272;2023-03-24T07:25:15;25.60;;;18.27;;
77430;SDS011;66498;48.564;19.272;2023-03-24T07:27:44;25.17;;;18.20;;
77430;SDS011;66498;48.564;19.272;2023-03-24T07:30:11;23.45;;;15.80;;
77430;SDS011;66498;48.564;19.272;2023-03-24T07:32:37;22.20;;;16.52;;
77430;SDS011;66498;48.564;19.272;2023-03-24T07:35:05;22.35;;;16.70;;
77430;SDS011;66498;48.564;19.272;2023-03-24T07:37:31;26.25;;;17.48;;
77430;SDS011;66498;48.564;19.272;2023-03-24T07:39:57;21.40;;;17.00;;
77430;SDS011;66498;48.564;19.272;2023-03-24T07:42:23;24.35;;;16.95;;
77430;SDS011;66498;48.564;19.272;2023-03-24T07:44:49;23.85;;;16.67;;
77430;SDS011;66498;48.564;19.272;2023-03-24T07:47:15;26.80;;;18.35;;
77430;SDS011;66498;48.564;19.272;2023-03-24T07:49:41;24.38;;;17.60;;
77430;SDS011;66498;48.564;19.272;2023-03-24T07:52:07;25.05;;;16.35;;
77430;SDS011;66498;48.564;19.272;2023-03-24T07:54:32;27.23;;;17.70;;
77430;SDS011;66498;48.564;19.272;2023-03-24T07:56:58;20.98;;;16.65;;
77430;SDS011;66498;48.564;19.272;2023-03-24T07:59:24;23.98;;;17.48;;
77430;SDS011;66498;48.564;19.272;2023-03-24T08:01:51;22.88;;;17.00;;
77430;SDS011;66498;48.564;19.272;2023-03-24T08:04:16;22.10;;;16.73;;
77430;SDS011;66498;48.564;19.272;2023-03-24T08:06:42;22.02;;;16.65;;
77430;SDS011;66498;48.564;19.272;2023-03-24T08:09:11;22.60;;;17.38;;
77430;SDS011;66498;48.564;19.272;2023-03-24T08:11:38;29.40;;;16.95;;
77430;SDS011;66498;48.564;19.272;2023-03-24T08:14:04;28.33;;;17.20;;
77430;SDS011;66498;48.564;19.272;2023-03-24T08:16:30;19.33;;;15.27;;
77430;SDS011;66498;48.564;19.272;2023-03-24T08:18:56;20.70;;;16.55;;
77430;SDS011;66498;48.564;19.272;2023-03-24T08:21:22;23.95;;;15.90;;
77430;SDS011;66498;48.564;19.272;2023-03-24T08:23:49;23.15;;;16.38;;
77430;SDS011;66498;48.564;19.272;2023-03-24T08:26:15;22.90;;;17.02;;
77430;SDS011;66498;48.564;19.272;2023-03-24T08:28:41;21.67;;;15.68;;
77430;SDS011;66498;48.564;19.272;2023-03-24T08:31:07;27.15;;;15.13;;
77430;SDS011;66498;48.564;19.272;2023-03-24T08:33:33;33.95;;;14.85;;
77430;SDS011;66498;48.564;19.272;2023-03-24T08:36:00;21.15;;;14.02;;
77430;SDS011;66498;48.564;19.272;2023-03-24T08:38:26;17.65;;;13.38;;
77430;SDS011;66498;48.564;19.272;2023-03-24T08:40:58;21.92;;;13.88;;
77430;SDS011;66498;48.564;19.272;2023-03-24T08:43:27;18.80;;;13.43;;
77430;SDS011;66498;48.564;19.272;2023-03-24T08:45:55;15.75;;;12.07;;
77430;SDS011;66498;48.564;19.272;2023-03-24T08:48:22;16.58;;;11.52;;
77430;SDS011;66498;48.564;19.272;2023-03-24T08:50:47;20.73;;;12.02;;
77430;SDS011;66498;48.564;19.272;2023-03-24T08:53:13;17.33;;;13.98;;
77430;SDS011;66498;48.564;19.272;2023-03-24T08:55:40;17.35;;;12.80;;
77430;SDS011;66498;48.564;19.272;2023-03-24T08:58:18;21.77;;;14.68;;
77430;SDS011;66498;48.564;19.272;2023-03-24T09:00:47;19.00;;;13.88;;
77430;SDS011;66498;48.564;19.272;2023-03-24T09:03:16;18.38;;;13.65;;
77430;SDS011;66498;48.564;19.272;2023-03-24T09:05:46;18.52;;;14.35;;
77430;SDS011;66498;48.564;19.272;2023-03-24T09:08:13;19.50;;;13.82;;
77430;SDS011;66498;48.564;19.272;2023-03-24T09:11:03;18.45;;;13.90;;
77430;SDS011;66498;48.564;19.272;2023-03-24T09:13:30;20.40;;;13.95;;
77430;SDS011;66498;48.564;19.272;2023-03-24T09:15:59;22.27;;;15.00;;
77430;SDS011;66498;48.564;19.272;2023-03-24T09:18:26;25.73;;;15.20;;
77430;SDS011;66498;48.564;19.272;2023-03-24T09:20:53;20.27;;;14.43;;
77430;SDS011;66498;48.564;19.272;2023-03-24T09:23:19;23.42;;;15.10;;
77430;SDS011;66498;48.564;19.272;2023-03-24T09:25:49;19.65;;;14.30;;
77430;SDS011;66498;48.564;19.272;2023-03-24T09:28:16;20.42;;;14.68;;
77430;SDS011;66498;48.564;19.272;2023-03-24T09:30:42;18.65;;;14.02;;
77430;SDS011;66498;48.564;19.272;2023-03-24T09:33:08;18.42;;;12.15;;
77430;SDS011;66498;48.564;19.272;2023-03-24T09:35:34;19.02;;;12.80;;
77430;SDS011;66498;48.564;19.272;2023-03-24T09:38:00;20.00;;;12.57;;
77430;SDS011;66498;48.564;19.272;2023-03-24T09:40:35;21.77;;;12.40;;
77430;SDS011;66498;48.564;19.272;2023-03-24T09:43:16;21.52;;;14.38;;
77430;SDS011;66498;48.564;19.272;2023-03-24T09:45:54;16.58;;;13.05;;
77430;SDS011;66498;48.564;19.272;2023-03-24T09:48:55;67.30;;;16.95;;
77430;SDS011;66498;48.564;19.272;2023-03-24T09:51:23;32.80;;;16.77;;
77430;SDS011;66498;48.564;19.272;2023-03-24T09:54:00;23.92;;;15.27;;
77430;SDS011;66498;48.564;19.272;2023-03-24T09:56:36;16.48;;;13.02;;
77430;SDS011;66498;48.564;19.272;2023-03-24T10:01:54;17.10;;;11.50;;
77430;SDS011;66498;48.564;19.272;2023-03-24T10:04:23;14.93;;;10.48;;
77430;SDS011;66498;48.564;19.272;2023-03-24T10:06:56;14.10;;;9.98;;
77430;SDS011;66498;48.564;19.272;2023-03-24T10:09:32;11.73;;;7.95;;
77430;SDS011;66498;48.564;19.272;2023-03-24T10:14:50;15.77;;;7.88;;
77430;SDS011;66498;48.564;19.272;2023-03-24T10:22:51;10.82;;;7.45;;
77430;SDS011;66498;48.564;19.272;2023-03-24T10:25:33;9.23;;;7.15;;
77430;SDS011;66498;48.564;19.272;2023-03-24T10:28:22;9.77;;;7.32;;
77430;SDS011;66498;48.564;19.272;2023-03-24T10:30:52;13.38;;;7.93;;
77430;SDS011;66498;48.564;19.272;2023-03-24T10:33:23;10.68;;;6.88;;
77430;SDS011;66498;48.564;19.272;2023-03-24T10:38:26;9.40;;;6.82;;
77430;SDS011;66498;48.564;19.272;2023-03-24T10:40:51;10.20;;;6.75;;
77430;SDS011;66498;48.564;19.272;2023-03-24T10:43:19;9.48;;;6.45;;
77430;SDS011;66498;48.564;19.272;2023-03-24T10:45:51;16.95;;;7.03;;
77430;SDS011;66498;48.564;19.272;2023-03-24T10:51:12;6.57;;;4.70;;
77430;SDS011;66498;48.564;19.272;2023-03-24T10:53:50;7.55;;;5.40;;
77430;SDS011;66498;48.564;19.272;2023-03-24T10:56:37;8.13;;;5.93;;
77430;SDS011;66498;48.564;19.272;2023-03-24T10:59:15;9.77;;;5.50;;
77430;SDS011;66498;48.564;19.272;2023-03-24T11:01:44;7.85;;;5.18;;
77430;SDS011;66498;48.564;19.272;2023-03-24T11:04:11;7.50;;;5.80;;
77430;SDS011;66498;48.564;19.272;2023-03-24T11:06:55;7.10;;;5.60;;
77430;SDS011;66498;48.564;19.272;2023-03-24T11:09:26;7.13;;;4.65;;
77430;SDS011;66498;48.564;19.272;2023-03-24T11:11:54;9.85;;;4.90;;
77430;SDS011;66498;48.564;19.272;2023-03-24T11:14:23;6.15;;;4.82;;
77430;SDS011;66498;48.564;19.272;2023-03-24T11:16:52;8.35;;;4.75;;
77430;SDS011;66498;48.564;19.272;2023-03-24T11:19:26;7.38;;;4.65;;
77430;SDS011;66498;48.564;19.272;2023-03-24T11:21:54;7.20;;;4.47;;
77430;SDS011;66498;48.564;19.272;2023-03-24T11:24:25;6.88;;;4.68;;
77430;SDS011;66498;48.564;19.272;2023-03-24T11:26:54;8.00;;;4.95;;
77430;SDS011;66498;48.564;19.272;2023-03-24T11:29:28;8.23;;;5.32;;
77430;SDS011;66498;48.564;19.272;2023-03-24T11:31:57;7.35;;;5.00;;
77430;SDS011;66498;48.564;19.272;2023-03-24T11:34:29;10.70;;;5.03;;
77430;SDS011;66498;48.564;19.272;2023-03-24T11:37:19;9.10;;;4.82;;
77430;SDS011;66498;48.564;19.272;2023-03-24T11:42:41;8.10;;;4.78;;
77430;SDS011;66498;48.564;19.272;2023-03-24T11:45:18;8.52;;;5.00;;
77430;SDS011;66498;48.564;19.272;2023-03-24T11:47:45;8.68;;;5.20;;
77430;SDS011;66498;48.564;19.272;2023-03-24T11:50:32;7.15;;;5.00;;
77430;SDS011;66498;48.564;19.272;2023-03-24T11:53:19;8.63;;;5.40;;
77430;SDS011;66498;48.564;19.272;2023-03-24T11:55:57;9.27;;;6.05;;
77430;SDS011;66498;48.564;19.272;2023-03-24T11:58:45;10.00;;;5.80;;
77430;SDS011;66498;48.564;19.272;2023-03-24T12:06:36;8.77;;;6.05;;
77430;SDS011;66498;48.564;19.272;2023-03-24T12:09:21;10.45;;;6.53;;
77430;SDS011;66498;48.564;19.272;2023-03-24T12:17:39;10.75;;;6.30;;
77430;SDS011;66498;48.564;19.272;2023-03-24T12:20:20;10.43;;;6.82;;
77430;SDS011;66498;48.564;19.272;2023-03-24T12:28:38;14.13;;;6.32;;
77430;SDS011;66498;48.564;19.272;2023-03-24T12:31:27;9.55;;;6.72;;
77430;SDS011;66498;48.564;19.272;2023-03-24T12:41:53;12.02;;;7.05;;
77430;SDS011;66498;48.564;19.272;2023-03-24T12:55:55;12.52;;;6.45;;
77430;SDS011;66498;48.564;19.272;2023-03-24T13:09:23;10.48;;;6.68;;
77430;SDS011;66498;48.564;19.272;2023-03-24T13:17:16;16.10;;;7.40;;
77430;SDS011;66498;48.564;19.272;2023-03-24T13:19:53;11.45;;;7.28;;
77430;SDS011;66498;48.564;19.272;2023-03-24T13:22:20;10.30;;;7.20;;
77430;SDS011;66498;48.564;19.272;2023-03-24T13:24:49;10.75;;;7.55;;
77430;SDS011;66498;48.564;19.272;2023-03-24T13:27:23;11.45;;;7.93;;
77430;SDS011;66498;48.564;19.272;2023-03-24T13:32:34;14.10;;;9.10;;
77430;SDS011;66498;48.564;19.272;2023-03-24T13:37:54;13.73;;;9.60;;
77430;SDS011;66498;48.564;19.272;2023-03-24T13:40:28;12.45;;;9.05;;
77430;SDS011;66498;48.564;19.272;2023-03-24T13:43:00;11.32;;;9.38;;
77430;SDS011;66498;48.564;19.272;2023-03-24T13:45:45;11.52;;;9.25;;
77430;SDS011;66498;48.564;19.272;2023-03-24T13:48:24;11.30;;;9.10;;
77430;SDS011;66498;48.564;19.272;2023-03-24T13:50:59;15.07;;;9.38;;
77430;SDS011;66498;48.564;19.272;2023-03-24T13:56:52;13.25;;;9.55;;
77430;SDS011;66498;48.564;19.272;2023-03-24T13:59:31;11.50;;;9.07;;
77430;SDS011;66498;48.564;19.272;2023-03-24T14:05:08;14.30;;;10.07;;
77430;SDS011;66498;48.564;19.272;2023-03-24T14:10:36;12.32;;;8.80;;
77430;SDS011;66498;48.564;19.272;2023-03-24T14:15:52;13.75;;;10.23;;
77430;SDS011;66498;48.564;19.272;2023-03-24T14:23:29;17.20;;;11.02;;
77430;SDS011;66498;48.564;19.272;2023-03-24T14:25:56;29.63;;;10.63;;
77430;SDS011;66498;48.564;19.272;2023-03-24T14:31:39;15.02;;;10.52;;
77430;SDS011;66498;48.564;19.272;2023-03-24T14:36:24;16.05;;;11.15;;
77430;SDS011;66498;48.564;19.272;2023-03-24T14:38:55;17.27;;;11.15;;
77430;SDS011;66498;48.564;19.272;2023-03-24T14:41:28;15.93;;;10.93;;
77430;SDS011;66498;48.564;19.272;2023-03-24T14:43:56;14.50;;;11.00;;
77430;SDS011;66498;48.564;19.272;2023-03-24T14:51:49;13.88;;;11.70;;
77430;SDS011;66498;48.564;19.272;2023-03-24T14:56:54;15.95;;;10.68;;
77430;SDS011;66498;48.564;19.272;2023-03-24T15:01:52;15.07;;;11.68;;
77430;SDS011;66498;48.564;19.272;2023-03-24T15:04:25;15.73;;;11.73;;
77430;SDS011;66498;48.564;19.272;2023-03-24T15:06:50;14.90;;;11.60;;
77430;SDS011;66498;48.564;19.272;2023-03-24T15:09:16;16.60;;;11.93;;
77430;SDS011;66498;48.564;19.272;2023-03-24T15:11:43;16.08;;;12.63;;
77430;SDS011;66498;48.564;19.272;2023-03-24T15:14:32;20.38;;;13.07;;
77430;SDS011;66498;48.564;19.272;2023-03-24T15:17:40;18.35;;;12.38;;
77430;SDS011;66498;48.564;19.272;2023-03-24T15:19:49;17.00;;;12.95;;
77430;SDS011;66498;48.564;19.272;2023-03-24T15:22:17;18.65;;;14.45;;
77430;SDS011;66498;48.564;19.272;2023-03-24T15:24:45;20.77;;;14.23;;
77430;SDS011;66498;48.564;19.272;2023-03-24T15:27:13;17.48;;;13.30;;
77430;SDS011;66498;48.564;19.272;2023-03-24T15:29:55;16.88;;;12.70;;
77430;SDS011;66498;48.564;19.272;2023-03-24T15:32:23;17.40;;;13.38;;
77430;SDS011;66498;48.564;19.272;2023-03-24T15:34:56;17.02;;;13.25;;
77430;SDS011;66498;48.564;19.272;2023-03-24T15:37:30;16.50;;;13.13;;
77430;SDS011;66498;48.564;19.272;2023-03-24T15:39:58;15.68;;;12.50;;
77430;SDS011;66498;48.564;19.272;2023-03-24T15:42:24;14.63;;;12.82;;
77430;SDS011;66498;48.564;19.272;2023-03-24T15:44:50;16.70;;;13.73;;
77430;SDS011;66498;48.564;19.272;2023-03-24T15:47:24;17.70;;;12.80;;
77430;SDS011;66498;48.564;19.272;2023-03-24T15:49:59;17.05;;;14.40;;
77430;SDS011;66498;48.564;19.272;2023-03-24T15:57:48;15.25;;;12.73;;
77430;SDS011;66498;48.564;19.272;2023-03-24T16:00:15;18.33;;;12.52;;
77430;SDS011;66498;48.564;19.272;2023-03-24T16:02:50;15.55;;;11.88;;
77430;SDS011;66498;48.564;19.272;2023-03-24T16:05:19;18.25;;;12.48;;
77430;SDS011;66498;48.564;19.272;2023-03-24T16:08:00;16.23;;;12.48;;
77430;SDS011;66498;48.564;19.272;2023-03-24T16:13:25;19.13;;;12.80;;
77430;SDS011;66498;48.564;19.272;2023-03-24T16:15:59;17.00;;;12.68;;
77430;SDS011;66498;48.564;19.272;2023-03-24T16:18:32;15.15;;;11.73;;
77430;SDS011;66498;48.564;19.272;2023-03-24T16:21:00;16.65;;;12.05;;
77430;SDS011;66498;48.564;19.272;2023-03-24T16:23:27;19.27;;;14.73;;
77430;SDS011;66498;48.564;19.272;2023-03-24T16:25:54;20.85;;;16.45;;
77430;SDS011;66498;48.564;19.272;2023-03-24T16:28:20;19.48;;;16.00;;
77430;SDS011;66498;48.564;19.272;2023-03-24T16:30:48;32.95;;;21.98;;
77430;SDS011;66498;48.564;19.272;2023-03-24T16:33:26;23.60;;;18.55;;
77430;SDS011;66498;48.564;19.272;2023-03-24T16:35:54;20.65;;;15.57;;
77430;SDS011;66498;48.564;19.272;2023-03-24T16:38:20;21.08;;;15.27;;
77430;SDS011;66498;48.564;19.272;2023-03-24T16:40:50;18.83;;;14.45;;
77430;SDS011;66498;48.564;19.272;2023-03-24T16:43:17;20.33;;;14.20;;
77430;SDS011;66498;48.564;19.272;2023-03-24T16:45:44;21.45;;;14.30;;
77430;SDS011;66498;48.564;19.272;2023-03-24T16:48:11;22.63;;;15.15;;
77430;SDS011;66498;48.564;19.272;2023-03-24T16:50:38;22.40;;;14.23;;
77430;SDS011;66498;48.564;19.272;2023-03-24T16:53:06;20.02;;;14.25;;
77430;SDS011;66498;48.564;19.272;2023-03-24T16:55:33;17.55;;;13.60;;
77430;SDS011;66498;48.564;19.272;2023-03-24T16:58:00;27.05;;;14.65;;
77430;SDS011;66498;48.564;19.272;2023-03-24T17:00:26;34.42;;;22.38;;
77430;SDS011;66498;48.564;19.272;2023-03-24T17:02:54;301.00;;;149.82;;
77430;SDS011;66498;48.564;19.272;2023-03-24T17:05:25;273.27;;;135.18;;
77430;SDS011;66498;48.564;19.272;2023-03-24T17:07:56;331.65;;;173.55;;
77430;SDS011;66498;48.564;19.272;2023-03-24T17:10:25;383.65;;;192.88;;
77430;SDS011;66498;48.564;19.272;2023-03-24T17:12:52;325.80;;;146.70;;
77430;SDS011;66498;48.564;19.272;2023-03-24T17:15:20;292.13;;;123.00;;
77430;SDS011;66498;48.564;19.272;2023-03-24T17:17:50;254.60;;;104.03;;
77430;SDS011;66498;48.564;19.272;2023-03-24T17:20:17;153.07;;;63.63;;
77430;SDS011;66498;48.564;19.272;2023-03-24T17:22:45;124.70;;;55.75;;
77430;SDS011;66498;48.564;19.272;2023-03-24T17:25:13;75.30;;;37.65;;